sensor_id;sensor_type;location;lat;lon;timestamp;temperature;humidity
2571;DHT22;1295;51.130;6.732;2023-06-10T00:00:57;25.70;99.90
2571;DHT22;1295;51.130;6.732;2023-06-10T00:03:23;25.70;99.90
2571;DHT22;1295;51.130;6.732;2023-06-10T00:05:49;25.70;99.90
2571;DHT22;1295;51.130;6.732;2023-06-10T00:08:14;25.60;99.90
2571;DHT22;1295;51.130;6.732;2023-06-10T00:10:40;25.60;99.90
2571;DHT22;1295;51.130;6.732;2023-06-10T00:13:06;25.60;99.90
2571;DHT22;1295;51.130;6.732;2023-06-10T00:15:33;25.60;99.90
2571;DHT22;1295;51.130;6.732;2023-06-10T00:17:58;25.60;99.90
2571;DHT22;1295;51.130;6.732;2023-06-10T00:20:24;25.60;99.90
2571;DHT22;1295;51.130;6.732;2023-06-10T00:22:50;25.50;99.90
2571;DHT22;1295;51.130;6.732;2023-06-10T00:25:15;25.50;99.90
2571;DHT22;1295;51.130;6.732;2023-06-10T00:27:42;25.50;99.90
2571;DHT22;1295;51.130;6.732;2023-06-10T00:30:08;25.40;99.90
2571;DHT22;1295;51.130;6.732;2023-06-10T00:32:34;25.50;99.90
2571;DHT22;1295;51.130;6.732;2023-06-10T00:35:01;25.40;99.90
2571;DHT22;1295;51.130;6.732;2023-06-10T00:37:26;25.40;99.90
2571;DHT22;1295;51.130;6.732;2023-06-10T00:39:53;25.40;99.90
2571;DHT22;1295;51.130;6.732;2023-06-10T00:42:18;25.40;99.90
2571;DHT22;1295;51.130;6.732;2023-06-10T00:44:44;25.30;99.90
2571;DHT22;1295;51.130;6.732;2023-06-10T00:47:09;25.40;99.90
2571;DHT22;1295;51.130;6.732;2023-06-10T00:49:35;25.30;99.90
2571;DHT22;1295;51.130;6.732;2023-06-10T00:52:02;25.30;99.90
2571;DHT22;1295;51.130;6.732;2023-06-10T00:54:27;25.30;99.90
2571;DHT22;1295;51.130;6.732;2023-06-10T00:56:53;25.30;99.90
2571;DHT22;1295;51.130;6.732;2023-06-10T00:59:19;25.30;99.90
2571;DHT22;1295;51.130;6.732;2023-06-10T01:01:45;25.20;99.90
2571;DHT22;1295;51.130;6.732;2023-06-10T01:04:10;25.20;99.90
2571;DHT22;1295;51.130;6.732;2023-06-10T01:06:59;25.20;99.90
2571;DHT22;1295;51.130;6.732;2023-06-10T01:09:35;25.20;99.90
2571;DHT22;1295;51.130;6.732;2023-06-10T01:12:03;25.10;99.90
2571;DHT22;1295;51.130;6.732;2023-06-10T01:14:27;25.10;99.90
2571;DHT22;1295;51.130;6.732;2023-06-10T01:16:53;25.10;99.90
2571;DHT22;1295;51.130;6.732;2023-06-10T01:19:18;25.10;99.90
2571;DHT22;1295;51.130;6.732;2023-06-10T01:21:44;25.10;99.90
2571;DHT22;1295;51.130;6.732;2023-06-10T01:24:09;25.10;99.90
2571;DHT22;1295;51.130;6.732;2023-06-10T01:26:35;25.10;99.90
2571;DHT22;1295;51.130;6.732;2023-06-10T01:29:03;25.00;99.90
2571;DHT22;1295;51.130;6.732;2023-06-10T01:31:31;25.00;99.90
2571;DHT22;1295;51.130;6.732;2023-06-10T01:33:54;25.00;99.90
2571;DHT22;1295;51.130;6.732;2023-06-10T01:36:20;25.00;99.90
2571;DHT22;1295;51.130;6.732;2023-06-10T01:38:46;25.00;99.90
2571;DHT22;1295;51.130;6.732;2023-06-10T01:41:12;24.90;99.90
2571;DHT22;1295;51.130;6.732;2023-06-10T01:43:38;24.90;99.90
2571;DHT22;1295;51.130;6.732;2023-06-10T01:46:03;24.90;99.90
2571;DHT22;1295;51.130;6.732;2023-06-10T01:48:29;24.90;99.90
2571;DHT22;1295;51.130;6.732;2023-06-10T01:50:55;24.90;99.90
2571;DHT22;1295;51.130;6.732;2023-06-10T01:53:22;24.90;99.90
2571;DHT22;1295;51.130;6.732;2023-06-10T01:55:48;24.80;99.90
2571;DHT22;1295;51.130;6.732;2023-06-10T01:58:14;24.80;99.90
2571;DHT22;1295;51.130;6.732;2023-06-10T02:00:40;24.80;99.90
2571;DHT22;1295;51.130;6.732;2023-06-10T02:03:06;24.80;99.90
2571;DHT22;1295;51.130;6.732;2023-06-10T02:05:31;24.80;99.90
2571;DHT22;1295;51.130;6.732;2023-06-10T02:07:57;24.70;99.90
2571;DHT22;1295;51.130;6.732;2023-06-10T02:10:22;24.70;99.90
2571;DHT22;1295;51.130;6.732;2023-06-10T02:12:48;24.70;99.90
2571;DHT22;1295;51.130;6.732;2023-06-10T02:15:14;24.70;99.90
2571;DHT22;1295;51.130;6.732;2023-06-10T02:17:39;24.70;99.90
2571;DHT22;1295;51.130;6.732;2023-06-10T02:20:07;24.60;99.90
2571;DHT22;1295;51.130;6.732;2023-06-10T02:22:33;24.60;99.90
2571;DHT22;1295;51.130;6.732;2023-06-10T02:24:58;24.60;99.90
2571;DHT22;1295;51.130;6.732;2023-06-10T02:27:24;24.60;99.90
2571;DHT22;1295;51.130;6.732;2023-06-10T02:29:50;24.60;99.90
2571;DHT22;1295;51.130;6.732;2023-06-10T02:32:16;24.60;99.90
2571;DHT22;1295;51.130;6.732;2023-06-10T02:34:42;24.60;99.90
2571;DHT22;1295;51.130;6.732;2023-06-10T02:37:08;24.50;99.90
2571;DHT22;1295;51.130;6.732;2023-06-10T02:39:39;24.50;99.90
2571;DHT22;1295;51.130;6.732;2023-06-10T02:42:05;24.50;99.90
2571;DHT22;1295;51.130;6.732;2023-06-10T02:44:31;24.40;99.90
2571;DHT22;1295;51.130;6.732;2023-06-10T02:46:57;24.40;99.90
2571;DHT22;1295;51.130;6.732;2023-06-10T02:49:23;24.40;99.90
2571;DHT22;1295;51.130;6.732;2023-06-10T02:51:49;24.40;99.90
2571;DHT22;1295;51.130;6.732;2023-06-10T02:54:14;24.40;99.90
2571;DHT22;1295;51.130;6.732;2023-06-10T02:56:40;24.40;99.90
2571;DHT22;1295;51.130;6.732;2023-06-10T02:59:05;24.30;99.90
2571;DHT22;1295;51.130;6.732;2023-06-10T03:01:31;24.30;99.90
2571;DHT22;1295;51.130;6.732;2023-06-10T03:03:56;24.30;99.90
2571;DHT22;1295;51.130;6.732;2023-06-10T03:06:23;24.30;99.90
2571;DHT22;1295;51.130;6.732;2023-06-10T03:08:48;24.30;99.90
2571;DHT22;1295;51.130;6.732;2023-06-10T03:11:14;24.30;99.90
2571;DHT22;1295;51.130;6.732;2023-06-10T03:13:40;24.20;99.90
2571;DHT22;1295;51.130;6.732;2023-06-10T03:16:05;24.20;99.90
2571;DHT22;1295;51.130;6.732;2023-06-10T03:18:31;24.20;99.90
2571;DHT22;1295;51.130;6.732;2023-06-10T03:20:57;24.20;99.90
2571;DHT22;1295;51.130;6.732;2023-06-10T03:23:23;24.20;99.90
2571;DHT22;1295;51.130;6.732;2023-06-10T03:25:49;24.20;99.90
2571;DHT22;1295;51.130;6.732;2023-06-10T03:28:14;24.20;99.90
2571;DHT22;1295;51.130;6.732;2023-06-10T03:30:40;24.10;99.90
2571;DHT22;1295;51.130;6.732;2023-06-10T03:33:06;24.10;99.90
2571;DHT22;1295;51.130;6.732;2023-06-10T03:35:32;24.10;99.90
2571;DHT22;1295;51.130;6.732;2023-06-10T03:37:58;24.10;99.90
2571;DHT22;1295;51.130;6.732;2023-06-10T03:40:23;24.00;99.90
2571;DHT22;1295;51.130;6.732;2023-06-10T03:42:49;24.00;99.90
2571;DHT22;1295;51.130;6.732;2023-06-10T03:45:15;24.00;99.90
2571;DHT22;1295;51.130;6.732;2023-06-10T03:47:41;24.00;99.90
2571;DHT22;1295;51.130;6.732;2023-06-10T03:50:07;24.00;99.90
2571;DHT22;1295;51.130;6.732;2023-06-10T03:52:34;24.00;99.90
2571;DHT22;1295;51.130;6.732;2023-06-10T03:54:59;23.90;99.90
2571;DHT22;1295;51.130;6.732;2023-06-10T03:57:25;23.90;99.90
2571;DHT22;1295;51.130;6.732;2023-06-10T03:59:50;23.90;99.90
2571;DHT22;1295;51.130;6.732;2023-06-10T04:02:17;23.90;99.90
2571;DHT22;1295;51.130;6.732;2023-06-10T04:04:43;23.80;99.90
2571;DHT22;1295;51.130;6.732;2023-06-10T04:07:08;23.90;99.90
2571;DHT22;1295;51.130;6.732;2023-06-10T04:09:39;23.80;99.90
2571;DHT22;1295;51.130;6.732;2023-06-10T04:12:05;23.80;99.90
2571;DHT22;1295;51.130;6.732;2023-06-10T04:14:32;23.80;99.90
2571;DHT22;1295;51.130;6.732;2023-06-10T04:16:58;23.80;99.90
2571;DHT22;1295;51.130;6.732;2023-06-10T04:19:24;23.80;99.90
2571;DHT22;1295;51.130;6.732;2023-06-10T04:21:49;23.80;99.90
2571;DHT22;1295;51.130;6.732;2023-06-10T04:24:15;23.80;99.90
2571;DHT22;1295;51.130;6.732;2023-06-10T04:26:41;23.70;99.90
2571;DHT22;1295;51.130;6.732;2023-06-10T04:29:06;23.70;99.90
2571;DHT22;1295;51.130;6.732;2023-06-10T04:31:32;23.70;99.90
2571;DHT22;1295;51.130;6.732;2023-06-10T04:33:58;23.70;99.90
2571;DHT22;1295;51.130;6.732;2023-06-10T04:36:23;23.70;99.90
2571;DHT22;1295;51.130;6.732;2023-06-10T04:38:49;23.70;99.90
2571;DHT22;1295;51.130;6.732;2023-06-10T04:41:15;23.70;99.90
2571;DHT22;1295;51.130;6.732;2023-06-10T04:43:40;23.70;99.90
2571;DHT22;1295;51.130;6.732;2023-06-10T04:46:06;23.70;99.90
2571;DHT22;1295;51.130;6.732;2023-06-10T04:48:31;23.60;99.90
2571;DHT22;1295;51.130;6.732;2023-06-10T04:50:58;23.60;99.90
2571;DHT22;1295;51.130;6.732;2023-06-10T04:53:23;23.60;99.90
2571;DHT22;1295;51.130;6.732;2023-06-10T04:55:48;23.60;99.90
2571;DHT22;1295;51.130;6.732;2023-06-10T04:58:14;23.60;99.90
2571;DHT22;1295;51.130;6.732;2023-06-10T05:00:40;23.60;99.90
2571;DHT22;1295;51.130;6.732;2023-06-10T05:03:05;23.60;99.90
2571;DHT22;1295;51.130;6.732;2023-06-10T05:05:31;23.60;99.90
2571;DHT22;1295;51.130;6.732;2023-06-10T05:07:57;23.60;99.90
2571;DHT22;1295;51.130;6.732;2023-06-10T05:10:23;23.60;99.90
2571;DHT22;1295;51.130;6.732;2023-06-10T05:12:49;23.60;99.90
2571;DHT22;1295;51.130;6.732;2023-06-10T05:15:14;23.60;99.90
2571;DHT22;1295;51.130;6.732;2023-06-10T05:17:40;23.50;99.90
2571;DHT22;1295;51.130;6.732;2023-06-10T05:20:07;23.50;99.90
2571;DHT22;1295;51.130;6.732;2023-06-10T05:22:32;23.50;99.90
2571;DHT22;1295;51.130;6.732;2023-06-10T05:24:58;23.50;99.90
2571;DHT22;1295;51.130;6.732;2023-06-10T05:27:24;23.50;99.90
2571;DHT22;1295;51.130;6.732;2023-06-10T05:29:49;23.50;99.90
2571;DHT22;1295;51.130;6.732;2023-06-10T05:32:15;23.50;99.90
2571;DHT22;1295;51.130;6.732;2023-06-10T05:34:41;23.50;99.90
2571;DHT22;1295;51.130;6.732;2023-06-10T05:37:06;23.60;99.90
2571;DHT22;1295;51.130;6.732;2023-06-10T05:39:32;23.50;99.90
2571;DHT22;1295;51.130;6.732;2023-06-10T05:41:58;23.50;99.90
2571;DHT22;1295;51.130;6.732;2023-06-10T05:44:24;23.50;99.90
2571;DHT22;1295;51.130;6.732;2023-06-10T05:46:50;23.50;99.90
2571;DHT22;1295;51.130;6.732;2023-06-10T05:49:22;23.50;99.90
2571;DHT22;1295;51.130;6.732;2023-06-10T05:51:48;23.50;99.90
2571;DHT22;1295;51.130;6.732;2023-06-10T05:54:13;23.60;99.90
2571;DHT22;1295;51.130;6.732;2023-06-10T05:56:39;23.60;99.90
2571;DHT22;1295;51.130;6.732;2023-06-10T05:59:05;23.50;99.90
2571;DHT22;1295;51.130;6.732;2023-06-10T06:01:30;23.60;99.90
2571;DHT22;1295;51.130;6.732;2023-06-10T06:03:56;23.50;99.90
2571;DHT22;1295;51.130;6.732;2023-06-10T06:06:22;23.50;99.90
2571;DHT22;1295;51.130;6.732;2023-06-10T06:08:47;23.50;99.90
2571;DHT22;1295;51.130;6.732;2023-06-10T06:11:13;23.50;99.90
2571;DHT22;1295;51.130;6.732;2023-06-10T06:13:43;23.50;99.90
2571;DHT22;1295;51.130;6.732;2023-06-10T06:16:09;23.50;99.90
2571;DHT22;1295;51.130;6.732;2023-06-10T06:18:35;23.50;99.90
2571;DHT22;1295;51.130;6.732;2023-06-10T06:21:00;23.50;99.90
2571;DHT22;1295;51.130;6.732;2023-06-10T06:23:27;23.50;99.90
2571;DHT22;1295;51.130;6.732;2023-06-10T06:25:52;23.50;99.90
2571;DHT22;1295;51.130;6.732;2023-06-10T06:28:18;23.50;99.90
2571;DHT22;1295;51.130;6.732;2023-06-10T06:30:44;23.50;99.90
2571;DHT22;1295;51.130;6.732;2023-06-10T06:33:09;23.50;99.90
2571;DHT22;1295;51.130;6.732;2023-06-10T06:35:35;23.50;99.90
2571;DHT22;1295;51.130;6.732;2023-06-10T06:38:01;23.50;99.90
2571;DHT22;1295;51.130;6.732;2023-06-10T06:40:26;23.50;99.90
2571;DHT22;1295;51.130;6.732;2023-06-10T06:42:52;23.30;99.90
2571;DHT22;1295;51.130;6.732;2023-06-10T06:45:19;23.40;99.90
2571;DHT22;1295;51.130;6.732;2023-06-10T06:47:44;23.30;99.90
2571;DHT22;1295;51.130;6.732;2023-06-10T06:50:10;23.00;99.90
2571;DHT22;1295;51.130;6.732;2023-06-10T06:52:36;23.10;99.90
2571;DHT22;1295;51.130;6.732;2023-06-10T06:55:03;23.40;99.90
2571;DHT22;1295;51.130;6.732;2023-06-10T06:57:28;23.40;99.90
2571;DHT22;1295;51.130;6.732;2023-06-10T06:59:54;23.50;99.90
2571;DHT22;1295;51.130;6.732;2023-06-10T07:02:20;23.40;99.90
2571;DHT22;1295;51.130;6.732;2023-06-10T07:04:45;23.50;99.90
2571;DHT22;1295;51.130;6.732;2023-06-10T07:07:11;23.50;99.90
2571;DHT22;1295;51.130;6.732;2023-06-10T07:09:37;23.30;99.90
2571;DHT22;1295;51.130;6.732;2023-06-10T07:12:03;23.40;99.90
2571;DHT22;1295;51.130;6.732;2023-06-10T07:14:29;23.40;99.90
2571;DHT22;1295;51.130;6.732;2023-06-10T07:16:54;23.50;99.90
2571;DHT22;1295;51.130;6.732;2023-06-10T07:19:20;23.50;99.90
2571;DHT22;1295;51.130;6.732;2023-06-10T07:21:46;23.50;99.90
2571;DHT22;1295;51.130;6.732;2023-06-10T07:24:11;23.50;99.90
2571;DHT22;1295;51.130;6.732;2023-06-10T07:26:37;23.50;99.90
2571;DHT22;1295;51.130;6.732;2023-06-10T07:29:02;23.50;99.90
2571;DHT22;1295;51.130;6.732;2023-06-10T07:31:28;23.50;99.90
2571;DHT22;1295;51.130;6.732;2023-06-10T07:33:54;23.60;99.90
2571;DHT22;1295;51.130;6.732;2023-06-10T07:36:19;23.60;99.90
2571;DHT22;1295;51.130;6.732;2023-06-10T07:38:45;23.60;99.90
2571;DHT22;1295;51.130;6.732;2023-06-10T07:41:11;23.70;99.90
2571;DHT22;1295;51.130;6.732;2023-06-10T07:43:37;23.60;99.90
2571;DHT22;1295;51.130;6.732;2023-06-10T07:46:03;23.80;99.90
2571;DHT22;1295;51.130;6.732;2023-06-10T07:48:28;23.70;99.90
2571;DHT22;1295;51.130;6.732;2023-06-10T07:50:54;23.60;99.90
2571;DHT22;1295;51.130;6.732;2023-06-10T07:53:20;23.80;99.90
2571;DHT22;1295;51.130;6.732;2023-06-10T07:55:45;23.80;99.90
2571;DHT22;1295;51.130;6.732;2023-06-10T07:58:11;23.90;99.90
2571;DHT22;1295;51.130;6.732;2023-06-10T08:00:37;24.00;99.90
2571;DHT22;1295;51.130;6.732;2023-06-10T08:03:02;23.90;99.90
2571;DHT22;1295;51.130;6.732;2023-06-10T08:05:29;24.20;99.90
2571;DHT22;1295;51.130;6.732;2023-06-10T08:07:55;24.20;99.90
2571;DHT22;1295;51.130;6.732;2023-06-10T08:10:20;24.30;99.90
2571;DHT22;1295;51.130;6.732;2023-06-10T08:12:45;24.20;99.90
2571;DHT22;1295;51.130;6.732;2023-06-10T08:15:11;24.00;99.90
2571;DHT22;1295;51.130;6.732;2023-06-10T08:17:37;24.20;99.90
2571;DHT22;1295;51.130;6.732;2023-06-10T08:20:04;24.70;99.90
2571;DHT22;1295;51.130;6.732;2023-06-10T08:22:30;24.70;99.90
2571;DHT22;1295;51.130;6.732;2023-06-10T08:24:55;24.50;99.90
2571;DHT22;1295;51.130;6.732;2023-06-10T08:27:21;24.90;99.90
2571;DHT22;1295;51.130;6.732;2023-06-10T08:29:47;25.40;99.90
2571;DHT22;1295;51.130;6.732;2023-06-10T08:32:13;25.00;99.90
2571;DHT22;1295;51.130;6.732;2023-06-10T08:34:44;25.00;99.90
2571;DHT22;1295;51.130;6.732;2023-06-10T08:37:20;25.00;99.90
2571;DHT22;1295;51.130;6.732;2023-06-10T08:39:46;24.80;99.90
2571;DHT22;1295;51.130;6.732;2023-06-10T08:44:43;25.20;99.90
2571;DHT22;1295;51.130;6.732;2023-06-10T08:47:13;24.70;99.90
2571;DHT22;1295;51.130;6.732;2023-06-10T08:49:44;25.10;99.90
2571;DHT22;1295;51.130;6.732;2023-06-10T08:52:09;25.10;99.90
2571;DHT22;1295;51.130;6.732;2023-06-10T08:54:35;24.90;99.90
2571;DHT22;1295;51.130;6.732;2023-06-10T08:57:01;24.60;99.90
2571;DHT22;1295;51.130;6.732;2023-06-10T08:59:27;24.60;99.90
2571;DHT22;1295;51.130;6.732;2023-06-10T09:01:52;24.70;99.90
2571;DHT22;1295;51.130;6.732;2023-06-10T09:04:18;25.80;99.90
2571;DHT22;1295;51.130;6.732;2023-06-10T09:06:44;26.30;99.90
2571;DHT22;1295;51.130;6.732;2023-06-10T09:09:10;25.20;99.90
2571;DHT22;1295;51.130;6.732;2023-06-10T09:11:36;25.10;99.90
2571;DHT22;1295;51.130;6.732;2023-06-10T09:14:02;25.10;99.90
2571;DHT22;1295;51.130;6.732;2023-06-10T09:16:28;26.20;99.90
2571;DHT22;1295;51.130;6.732;2023-06-10T09:18:54;26.20;99.90
2571;DHT22;1295;51.130;6.732;2023-06-10T09:21:19;26.00;99.90
2571;DHT22;1295;51.130;6.732;2023-06-10T09:23:45;25.80;99.90
2571;DHT22;1295;51.130;6.732;2023-06-10T09:26:10;26.00;99.90
2571;DHT22;1295;51.130;6.732;2023-06-10T09:28:36;25.10;99.90
2571;DHT22;1295;51.130;6.732;2023-06-10T09:31:02;24.80;99.90
2571;DHT22;1295;51.130;6.732;2023-06-10T09:33:27;24.70;99.90
2571;DHT22;1295;51.130;6.732;2023-06-10T09:35:53;24.70;99.90
2571;DHT22;1295;51.130;6.732;2023-06-10T09:38:20;24.80;99.90
2571;DHT22;1295;51.130;6.732;2023-06-10T09:40:49;24.80;99.90
2571;DHT22;1295;51.130;6.732;2023-06-10T09:43:14;25.80;99.90
2571;DHT22;1295;51.130;6.732;2023-06-10T09:45:39;25.20;99.90
2571;DHT22;1295;51.130;6.732;2023-06-10T09:48:05;24.90;99.90
2571;DHT22;1295;51.130;6.732;2023-06-10T09:50:33;25.00;99.90
2571;DHT22;1295;51.130;6.732;2023-06-10T09:52:58;25.20;99.90
2571;DHT22;1295;51.130;6.732;2023-06-10T09:55:24;25.50;99.90
2571;DHT22;1295;51.130;6.732;2023-06-10T09:57:53;25.10;99.90
2571;DHT22;1295;51.130;6.732;2023-06-10T10:00:16;25.00;99.90
2571;DHT22;1295;51.130;6.732;2023-06-10T10:02:49;24.90;99.90
2571;DHT22;1295;51.130;6.732;2023-06-10T10:05:14;25.10;99.90
2571;DHT22;1295;51.130;6.732;2023-06-10T10:07:44;26.00;99.90
2571;DHT22;1295;51.130;6.732;2023-06-10T10:10:15;25.40;99.90
2571;DHT22;1295;51.130;6.732;2023-06-10T10:12:40;25.50;99.90
2571;DHT22;1295;51.130;6.732;2023-06-10T10:15:08;25.20;99.90
2571;DHT22;1295;51.130;6.732;2023-06-10T10:17:39;25.50;99.90
2571;DHT22;1295;51.130;6.732;2023-06-10T10:20:04;25.90;99.90
2571;DHT22;1295;51.130;6.732;2023-06-10T10:22:31;26.90;99.90
2571;DHT22;1295;51.130;6.732;2023-06-10T10:24:56;26.30;99.90
2571;DHT22;1295;51.130;6.732;2023-06-10T10:27:28;25.50;99.90
2571;DHT22;1295;51.130;6.732;2023-06-10T10:29:53;25.40;99.90
2571;DHT22;1295;51.130;6.732;2023-06-10T10:32:18;25.40;99.90
2571;DHT22;1295;51.130;6.732;2023-06-10T10:34:49;26.20;99.90
2571;DHT22;1295;51.130;6.732;2023-06-10T10:37:15;27.40;99.90
2571;DHT22;1295;51.130;6.732;2023-06-10T10:39:41;27.30;99.90
2571;DHT22;1295;51.130;6.732;2023-06-10T10:42:07;26.70;99.90
2571;DHT22;1295;51.130;6.732;2023-06-10T10:44:33;25.50;99.90
2571;DHT22;1295;51.130;6.732;2023-06-10T10:47:01;25.80;99.90
2571;DHT22;1295;51.130;6.732;2023-06-10T10:49:25;25.80;99.90
2571;DHT22;1295;51.130;6.732;2023-06-10T10:51:55;26.80;99.90
2571;DHT22;1295;51.130;6.732;2023-06-10T10:54:20;26.60;99.90
2571;DHT22;1295;51.130;6.732;2023-06-10T10:59:23;27.60;99.90
2571;DHT22;1295;51.130;6.732;2023-06-10T11:01:49;26.70;99.90
2571;DHT22;1295;51.130;6.732;2023-06-10T11:04:17;26.20;99.90
2571;DHT22;1295;51.130;6.732;2023-06-10T11:06:40;25.60;99.90
2571;DHT22;1295;51.130;6.732;2023-06-10T11:11:48;26.00;99.90
2571;DHT22;1295;51.130;6.732;2023-06-10T11:14:07;26.10;99.90
2571;DHT22;1295;51.130;6.732;2023-06-10T11:16:39;26.20;99.90
2571;DHT22;1295;51.130;6.732;2023-06-10T11:19:03;26.30;99.90
2571;DHT22;1295;51.130;6.732;2023-06-10T11:21:29;27.10;99.90
2571;DHT22;1295;51.130;6.732;2023-06-10T11:23:57;26.30;99.90
2571;DHT22;1295;51.130;6.732;2023-06-10T11:26:30;25.90;99.90
2571;DHT22;1295;51.130;6.732;2023-06-10T11:29:05;26.70;99.90
2571;DHT22;1295;51.130;6.732;2023-06-10T11:31:32;26.20;99.90
2571;DHT22;1295;51.130;6.732;2023-06-10T11:34:00;26.70;99.90
2571;DHT22;1295;51.130;6.732;2023-06-10T11:36:26;26.80;99.90
2571;DHT22;1295;51.130;6.732;2023-06-10T11:38:55;26.50;99.90
2571;DHT22;1295;51.130;6.732;2023-06-10T11:41:17;26.60;99.90
2571;DHT22;1295;51.130;6.732;2023-06-10T11:43:42;26.10;99.90
2571;DHT22;1295;51.130;6.732;2023-06-10T11:46:08;26.90;99.90
2571;DHT22;1295;51.130;6.732;2023-06-10T11:48:33;26.90;99.90
2571;DHT22;1295;51.130;6.732;2023-06-10T11:50:59;26.80;99.90
2571;DHT22;1295;51.130;6.732;2023-06-10T11:53:25;27.50;99.90
2571;DHT22;1295;51.130;6.732;2023-06-10T11:55:51;26.50;99.90
2571;DHT22;1295;51.130;6.732;2023-06-10T11:58:18;26.20;99.90
2571;DHT22;1295;51.130;6.732;2023-06-10T12:00:48;26.20;99.90
2571;DHT22;1295;51.130;6.732;2023-06-10T12:03:13;26.20;99.90
2571;DHT22;1295;51.130;6.732;2023-06-10T12:05:38;26.80;99.90
2571;DHT22;1295;51.130;6.732;2023-06-10T12:08:10;26.40;99.90
2571;DHT22;1295;51.130;6.732;2023-06-10T12:10:40;26.20;99.90
2571;DHT22;1295;51.130;6.732;2023-06-10T12:13:05;26.30;99.90
2571;DHT22;1295;51.130;6.732;2023-06-10T12:15:31;28.40;99.90
2571;DHT22;1295;51.130;6.732;2023-06-10T12:17:57;28.40;99.90
2571;DHT22;1295;51.130;6.732;2023-06-10T12:20:25;27.10;99.90
2571;DHT22;1295;51.130;6.732;2023-06-10T12:22:50;26.50;99.90
2571;DHT22;1295;51.130;6.732;2023-06-10T12:25:16;27.50;99.90
2571;DHT22;1295;51.130;6.732;2023-06-10T12:30:18;27.40;99.90
2571;DHT22;1295;51.130;6.732;2023-06-10T12:32:41;26.70;99.90
2571;DHT22;1295;51.130;6.732;2023-06-10T12:35:07;27.10;99.90
2571;DHT22;1295;51.130;6.732;2023-06-10T12:37:33;26.60;99.90
2571;DHT22;1295;51.130;6.732;2023-06-10T12:40:01;26.40;99.90
2571;DHT22;1295;51.130;6.732;2023-06-10T12:42:26;27.10;99.90
2571;DHT22;1295;51.130;6.732;2023-06-10T12:44:53;27.20;99.90
2571;DHT22;1295;51.130;6.732;2023-06-10T12:47:18;27.10;99.90
2571;DHT22;1295;51.130;6.732;2023-06-10T12:49:44;27.10;99.90
2571;DHT22;1295;51.130;6.732;2023-06-10T12:52:09;27.10;99.90
2571;DHT22;1295;51.130;6.732;2023-06-10T12:54:36;26.60;99.90
2571;DHT22;1295;51.130;6.732;2023-06-10T12:57:02;26.60;99.90
2571;DHT22;1295;51.130;6.732;2023-06-10T12:59:28;26.70;99.90
2571;DHT22;1295;51.130;6.732;2023-06-10T13:01:54;26.70;99.90
2571;DHT22;1295;51.130;6.732;2023-06-10T13:04:20;26.50;99.90
2571;DHT22;1295;51.130;6.732;2023-06-10T13:06:45;26.80;99.90
2571;DHT22;1295;51.130;6.732;2023-06-10T13:09:11;27.30;99.90
2571;DHT22;1295;51.130;6.732;2023-06-10T13:11:37;27.30;99.90
2571;DHT22;1295;51.130;6.732;2023-06-10T13:14:04;26.80;99.90
2571;DHT22;1295;51.130;6.732;2023-06-10T13:16:28;26.70;99.90
2571;DHT22;1295;51.130;6.732;2023-06-10T13:18:54;27.10;99.90
2571;DHT22;1295;51.130;6.732;2023-06-10T13:21:20;26.70;99.90
2571;DHT22;1295;51.130;6.732;2023-06-10T13:23:45;26.70;99.90
2571;DHT22;1295;51.130;6.732;2023-06-10T13:26:11;27.00;99.90
2571;DHT22;1295;51.130;6.732;2023-06-10T13:28:36;27.70;99.90
2571;DHT22;1295;51.130;6.732;2023-06-10T13:31:02;26.80;99.90
2571;DHT22;1295;51.130;6.732;2023-06-10T13:33:28;26.60;99.90
2571;DHT22;1295;51.130;6.732;2023-06-10T13:35:53;26.50;99.90
2571;DHT22;1295;51.130;6.732;2023-06-10T13:38:19;27.30;99.90
2571;DHT22;1295;51.130;6.732;2023-06-10T13:40:45;27.80;99.90
2571;DHT22;1295;51.130;6.732;2023-06-10T13:43:10;28.20;99.90
2571;DHT22;1295;51.130;6.732;2023-06-10T13:45:36;28.00;99.90
2571;DHT22;1295;51.130;6.732;2023-06-10T13:48:03;27.00;99.90
2571;DHT22;1295;51.130;6.732;2023-06-10T13:50:28;26.90;99.90
2571;DHT22;1295;51.130;6.732;2023-06-10T13:52:54;27.80;99.90
2571;DHT22;1295;51.130;6.732;2023-06-10T13:55:20;28.30;99.90
2571;DHT22;1295;51.130;6.732;2023-06-10T13:57:45;28.90;99.90
2571;DHT22;1295;51.130;6.732;2023-06-10T14:00:11;27.70;99.90
2571;DHT22;1295;51.130;6.732;2023-06-10T14:02:37;27.20;99.90
2571;DHT22;1295;51.130;6.732;2023-06-10T14:05:04;27.50;99.90
2571;DHT22;1295;51.130;6.732;2023-06-10T14:07:30;27.50;99.90
2571;DHT22;1295;51.130;6.732;2023-06-10T14:09:56;26.90;99.90
2571;DHT22;1295;51.130;6.732;2023-06-10T14:12:21;27.10;99.90
2571;DHT22;1295;51.130;6.732;2023-06-10T14:14:47;27.40;99.90
2571;DHT22;1295;51.130;6.732;2023-06-10T14:17:13;27.20;99.90
2571;DHT22;1295;51.130;6.732;2023-06-10T14:19:38;27.10;99.90
2571;DHT22;1295;51.130;6.732;2023-06-10T14:22:04;26.80;99.90
2571;DHT22;1295;51.130;6.732;2023-06-10T14:24:30;26.80;99.90
2571;DHT22;1295;51.130;6.732;2023-06-10T14:26:56;26.90;99.90
2571;DHT22;1295;51.130;6.732;2023-06-10T14:29:22;26.90;99.90
2571;DHT22;1295;51.130;6.732;2023-06-10T14:31:47;27.00;99.90
2571;DHT22;1295;51.130;6.732;2023-06-10T14:34:13;27.10;99.90
2571;DHT22;1295;51.130;6.732;2023-06-10T14:36:39;27.00;99.90
2571;DHT22;1295;51.130;6.732;2023-06-10T14:39:06;27.60;99.90
2571;DHT22;1295;51.130;6.732;2023-06-10T14:41:31;27.60;99.90
2571;DHT22;1295;51.130;6.732;2023-06-10T14:43:57;27.40;99.90
2571;DHT22;1295;51.130;6.732;2023-06-10T14:46:23;27.40;99.90
2571;DHT22;1295;51.130;6.732;2023-06-10T14:48:48;27.30;99.90
2571;DHT22;1295;51.130;6.732;2023-06-10T14:51:15;27.10;99.90
2571;DHT22;1295;51.130;6.732;2023-06-10T14:53:41;27.30;99.90
2571;DHT22;1295;51.130;6.732;2023-06-10T14:56:07;27.20;99.90
2571;DHT22;1295;51.130;6.732;2023-06-10T14:58:33;27.40;99.90
2571;DHT22;1295;51.130;6.732;2023-06-10T15:00:59;27.40;99.90
2571;DHT22;1295;51.130;6.732;2023-06-10T15:03:24;27.50;99.90
2571;DHT22;1295;51.130;6.732;2023-06-10T15:05:50;27.60;99.90
2571;DHT22;1295;51.130;6.732;2023-06-10T15:08:15;27.30;99.90
2571;DHT22;1295;51.130;6.732;2023-06-10T15:10:41;27.40;99.90
2571;DHT22;1295;51.130;6.732;2023-06-10T15:13:07;27.20;99.90
2571;DHT22;1295;51.130;6.732;2023-06-10T15:15:32;27.20;99.90
2571;DHT22;1295;51.130;6.732;2023-06-10T15:17:58;27.50;99.90
2571;DHT22;1295;51.130;6.732;2023-06-10T15:20:24;27.40;99.90
2571;DHT22;1295;51.130;6.732;2023-06-10T15:22:51;27.50;99.90
2571;DHT22;1295;51.130;6.732;2023-06-10T15:25:17;27.50;99.90
2571;DHT22;1295;51.130;6.732;2023-06-10T15:27:43;27.40;99.90
2571;DHT22;1295;51.130;6.732;2023-06-10T15:30:10;27.20;99.90
2571;DHT22;1295;51.130;6.732;2023-06-10T15:32:36;27.30;99.90
2571;DHT22;1295;51.130;6.732;2023-06-10T15:35:02;27.30;99.90
2571;DHT22;1295;51.130;6.732;2023-06-10T15:37:28;27.60;99.90
2571;DHT22;1295;51.130;6.732;2023-06-10T15:39:54;27.70;99.90
2571;DHT22;1295;51.130;6.732;2023-06-10T15:42:20;27.70;99.90
2571;DHT22;1295;51.130;6.732;2023-06-10T15:44:45;27.60;99.90
2571;DHT22;1295;51.130;6.732;2023-06-10T15:47:11;27.50;99.90
2571;DHT22;1295;51.130;6.732;2023-06-10T15:49:37;27.70;99.90
2571;DHT22;1295;51.130;6.732;2023-06-10T15:52:04;27.70;99.90
2571;DHT22;1295;51.130;6.732;2023-06-10T15:54:30;27.40;99.90
2571;DHT22;1295;51.130;6.732;2023-06-10T15:56:55;27.70;99.90
2571;DHT22;1295;51.130;6.732;2023-06-10T15:59:21;27.70;99.90
2571;DHT22;1295;51.130;6.732;2023-06-10T16:01:47;27.60;99.90
2571;DHT22;1295;51.130;6.732;2023-06-10T16:04:12;27.80;99.90